Time;durP1;ratioP1;P1;durP2;ratioP2;P2;SDS_P1;SDS_P2;PMS_P1;PMS_P2;Temp;Humidity;BMP_temperature;BMP_pressure;BME280_temperature;BME280_humidity;BME280_pressure;Samples;Min_cycle;Max_cycle;Signal;HPM_P1;HPM_P2
2023/11/09 00:02:09;;;;;;;7.13;1.30;;;;;;;;;;5072544;28;20056;-83
2023/11/09 00:04:36;;;;;;;2.60;1.40;;;;;;;;;;5054857;28;20035;-83
2023/11/09 00:07:01;;;;;;;3.83;1.33;;;;;;;;;;5072693;28;20275;-83
2023/11/09 00:09:26;;;;;;;1.92;1.27;;;;;;;;;;5072672;28;20020;-83
2023/11/09 00:11:52;;;;;;;5.40;1.70;;;;;;;;;;5054783;28;20078;-83
2023/11/09 00:14:17;;;;;;;2.50;1.48;;;;;;;;;;5054589;28;20086;-83
2023/11/09 00:16:45;;;;;;;4.63;1.40;;;;;;;;;;5072587;28;20029;-83
2023/11/09 00:19:11;;;;;;;3.78;1.42;;;;;;;;;;5072301;28;20268;-83
2023/11/09 00:21:37;;;;;;;4.10;1.40;;;;;;;;;;5054379;28;20085;-83
2023/11/09 00:24:03;;;;;;;3.73;1.30;;;;;;;;;;5016279;28;1097693;-83
2023/11/09 00:26:28;;;;;;;3.65;1.15;;;;;;;;;;5064802;28;20268;-83
2023/11/09 00:28:53;;;;;;;4.10;1.40;;;;;;;;;;5073078;28;20087;-83
2023/11/09 00:31:19;;;;;;;3.17;1.50;;;;;;;;;;5055126;28;20419;-83
2023/11/09 00:33:44;;;;;;;3.78;1.17;;;;;;;;;;5073046;28;20030;-83
2023/11/09 00:36:10;;;;;;;4.07;1.35;;;;;;;;;;5073124;28;20370;-83
2023/11/09 00:38:35;;;;;;;4.10;1.10;;;;;;;;;;5072813;28;20024;-83
2023/11/09 00:41:02;;;;;;;2.23;1.10;;;;;;;;;;5055060;28;20331;-83
2023/11/09 00:43:28;;;;;;;2.55;0.90;;;;;;;;;;5054861;28;20024;-83
2023/11/09 00:45:53;;;;;;;1.45;0.85;;;;;;;;;;5046927;28;20028;-83
2023/11/09 00:48:19;;;;;;;2.70;1.20;;;;;;;;;;5072942;28;20016;-83
2023/11/09 00:50:44;;;;;;;3.67;1.25;;;;;;;;;;5054789;28;20253;-83
2023/11/09 00:53:09;;;;;;;3.42;1.23;;;;;;;;;;5054904;28;20381;-83
2023/11/09 00:55:35;;;;;;;2.60;1.10;;;;;;;;;;5054812;28;20032;-83
2023/11/09 00:58:00;;;;;;;3.20;1.10;;;;;;;;;;5054869;28;20033;-83
2023/11/09 01:00:27;;;;;;;5.53;1.70;;;;;;;;;;5053686;28;20269;-83
2023/11/09 01:02:53;;;;;;;1.55;1.10;;;;;;;;;;5054606;28;20017;-83
2023/11/09 01:05:18;;;;;;;2.40;1.30;;;;;;;;;;5072570;28;20111;-83
2023/11/09 01:07:43;;;;;;;2.93;1.10;;;;;;;;;;5072768;28;20131;-83
2023/11/09 01:10:08;;;;;;;5.90;1.05;;;;;;;;;;5054666;28;20340;-83
2023/11/09 01:12:34;;;;;;;3.65;1.20;;;;;;;;;;5054472;28;20459;-83
2023/11/09 01:15:01;;;;;;;3.43;1.30;;;;;;;;;;5072682;28;20027;-83
2023/11/09 01:17:27;;;;;;;1.90;0.95;;;;;;;;;;5054747;28;20465;-83
2023/11/09 01:19:52;;;;;;;3.55;1.20;;;;;;;;;;5072312;28;20025;-83
2023/11/09 01:22:18;;;;;;;2.80;1.27;;;;;;;;;;5072567;28;20024;-83
2023/11/09 01:24:43;;;;;;;2.35;1.23;;;;;;;;;;5072365;28;20032;-82
2023/11/09 01:27:08;;;;;;;2.78;1.27;;;;;;;;;;5072502;28;20097;-83
2023/11/09 01:29:33;;;;;;;2.57;0.90;;;;;;;;;;5072514;28;20023;-83
2023/11/09 01:31:59;;;;;;;5.50;1.63;;;;;;;;;;5072294;28;20257;-83
2023/11/09 01:34:24;;;;;;;3.90;1.10;;;;;;;;;;5072479;28;20017;-83
2023/11/09 01:36:51;;;;;;;1.15;1.00;;;;;;;;;;5054474;28;20017;-83
2023/11/09 01:39:16;;;;;;;4.05;1.20;;;;;;;;;;5072305;28;20452;-83
2023/11/09 01:41:42;;;;;;;1.10;0.90;;;;;;;;;;5054398;28;20071;-83
2023/11/09 01:44:08;;;;;;;1.42;0.68;;;;;;;;;;5072398;28;20024;-83
2023/11/09 01:46:33;;;;;;;4.13;1.00;;;;;;;;;;5072582;28;20025;-83
2023/11/09 01:48:58;;;;;;;3.65;0.93;;;;;;;;;;5053644;28;20032;-83
2023/11/09 01:51:24;;;;;;;1.92;1.10;;;;;;;;;;5054116;28;20491;-83
2023/11/09 01:53:49;;;;;;;2.00;1.10;;;;;;;;;;5072287;28;20035;-83
2023/11/09 01:56:17;;;;;;;3.00;0.90;;;;;;;;;;5072086;28;20100;-83
2023/11/09 01:58:42;;;;;;;3.90;1.20;;;;;;;;;;5054342;28;20452;-83
2023/11/09 02:01:10;;;;;;;2.58;1.10;;;;;;;;;;5054020;28;20113;-83
2023/11/09 02:03:35;;;;;;;4.28;1.48;;;;;;;;;;5072268;28;20056;-83
2023/11/09 02:06:02;;;;;;;1.95;1.02;;;;;;;;;;5072131;28;20125;-82
2023/11/09 02:08:28;;;;;;;3.08;0.85;;;;;;;;;;5071953;28;20023;-83
2023/11/09 02:10:53;;;;;;;4.68;1.00;;;;;;;;;;5054705;28;20024;-83
2023/11/09 02:13:18;;;;;;;2.90;1.23;;;;;;;;;;5057558;28;20077;-83
2023/11/09 02:15:44;;;;;;;2.03;1.07;;;;;;;;;;5057457;28;20032;-83
2023/11/09 02:18:09;;;;;;;3.83;1.30;;;;;;;;;;5057662;28;20284;-83
2023/11/09 02:20:36;;;;;;;1.60;1.20;;;;;;;;;;5075482;28;20056;-83
2023/11/09 02:23:01;;;;;;;3.58;1.20;;;;;;;;;;5075129;28;20736;-83
2023/11/09 02:25:27;;;;;;;5.25;1.25;;;;;;;;;;5057435;28;20040;-83
2023/11/09 02:27:53;;;;;;;4.03;1.30;;;;;;;;;;5075118;28;20017;-83
2023/11/09 02:30:19;;;;;;;1.88;1.08;;;;;;;;;;5057461;28;20073;-83
2023/11/09 02:32:44;;;;;;;3.93;0.93;;;;;;;;;;5050821;28;20016;-83
2023/11/09 02:35:09;;;;;;;2.10;1.10;;;;;;;;;;5056167;28;20399;-83
2023/11/09 02:37:34;;;;;;;4.30;1.20;;;;;;;;;;5057260;28;20336;-83
2023/11/09 02:40:00;;;;;;;1.95;1.00;;;;;;;;;;5075179;28;20332;-83
2023/11/09 02:42:25;;;;;;;2.80;1.25;;;;;;;;;;5057431;28;20016;-83
2023/11/09 02:44:50;;;;;;;1.13;0.87;;;;;;;;;;5057188;28;20114;-83
2023/11/09 02:47:16;;;;;;;3.15;1.17;;;;;;;;;;5057042;28;20166;-83
2023/11/09 02:49:41;;;;;;;3.77;1.37;;;;;;;;;;5057016;28;20043;-83
2023/11/09 02:52:06;;;;;;;9.50;1.33;;;;;;;;;;5074949;28;20253;-83
2023/11/09 02:54:32;;;;;;;2.75;1.42;;;;;;;;;;5074744;28;20607;-83
2023/11/09 02:56:57;;;;;;;3.93;1.30;;;;;;;;;;5074965;28;20020;-83
2023/11/09 02:59:22;;;;;;;4.38;1.15;;;;;;;;;;5074632;28;20272;-83
2023/11/09 03:01:47;;;;;;;1.60;1.10;;;;;;;;;;5056809;28;20020;-84
2023/11/09 03:04:13;;;;;;;1.83;1.10;;;;;;;;;;5074705;28;20342;-83
2023/11/09 03:06:38;;;;;;;0.98;0.82;;;;;;;;;;5056302;28;20253;-83
2023/11/09 03:09:03;;;;;;;2.87;1.30;;;;;;;;;;5074440;28;20122;-83
2023/11/09 03:11:29;;;;;;;3.78;1.35;;;;;;;;;;5056600;28;20303;-83
2023/11/09 03:13:54;;;;;;;1.88;1.17;;;;;;;;;;5074428;28;20415;-83
2023/11/09 03:16:21;;;;;;;1.93;1.00;;;;;;;;;;5074553;28;20031;-83
2023/11/09 03:18:47;;;;;;;3.17;1.60;;;;;;;;;;5074358;28;20257;-83
2023/11/09 03:21:12;;;;;;;7.93;1.60;;;;;;;;;;5056272;28;20088;-83
2023/11/09 03:23:37;;;;;;;2.77;1.30;;;;;;;;;;5055184;28;20107;-83
2023/11/09 03:26:02;;;;;;;4.63;1.10;;;;;;;;;;5074235;28;20568;-83
2023/11/09 03:28:28;;;;;;;4.82;1.60;;;;;;;;;;5056256;28;20253;-83
2023/11/09 03:30:54;;;;;;;6.05;0.98;;;;;;;;;;5056215;28;20020;-83
2023/11/09 03:33:20;;;;;;;5.78;1.70;;;;;;;;;;5048009;28;20476;-84
2023/11/09 03:35:45;;;;;;;3.10;1.40;;;;;;;;;;5056089;28;20031;-83
2023/11/09 03:38:10;;;;;;;1.87;0.97;;;;;;;;;;5074135;28;20020;-83
2023/11/09 03:40:35;;;;;;;2.87;1.50;;;;;;;;;;5074296;28;20029;-83
2023/11/09 03:43:00;;;;;;;3.75;1.23;;;;;;;;;;5056484;28;20254;-83
2023/11/09 03:45:26;;;;;;;5.07;1.27;;;;;;;;;;5074302;28;20092;-83
2023/11/09 03:47:53;;;;;;;5.20;1.23;;;;;;;;;;5074260;28;20020;-83
2023/11/09 03:50:18;;;;;;;4.10;1.10;;;;;;;;;;5056208;28;20024;-83
2023/11/09 03:52:45;;;;;;;4.97;1.30;;;;;;;;;;5056165;28;20024;-83
2023/11/09 03:55:11;;;;;;;2.28;1.17;;;;;;;;;;5073891;28;20262;-83
2023/11/09 03:57:36;;;;;;;2.50;1.15;;;;;;;;;;5074139;28;20020;-83
2023/11/09 04:00:07;;;;;;;2.60;1.20;;;;;;;;;;5056060;28;20440;-83
2023/11/09 04:02:33;;;;;;;1.52;1.00;;;;;;;;;;5073983;28;20023;-83
2023/11/09 04:04:58;;;;;;;3.63;1.30;;;;;;;;;;5073837;28;20013;-83
2023/11/09 04:07:23;;;;;;;3.10;1.20;;;;;;;;;;5073902;28;20345;-83
2023/11/09 04:09:48;;;;;;;1.73;1.10;;;;;;;;;;5055988;28;20346;-83
2023/11/09 04:12:14;;;;;;;2.63;1.30;;;;;;;;;;5055615;28;20250;-83
2023/11/09 04:14:39;;;;;;;2.37;1.10;;;;;;;;;;5073749;28;20234;-83
2023/11/09 04:17:04;;;;;;;3.60;1.15;;;;;;;;;;5055770;28;20252;-83
2023/11/09 04:19:30;;;;;;;2.77;1.30;;;;;;;;;;5055722;28;20023;-83
2023/11/09 04:21:55;;;;;;;2.20;1.27;;;;;;;;;;5055491;28;20364;-83
2023/11/09 04:24:20;;;;;;;1.47;1.03;;;;;;;;;;5055605;28;20282;-83
2023/11/09 04:26:46;;;;;;;1.77;0.88;;;;;;;;;;5055415;28;20269;-83
2023/11/09 04:29:11;;;;;;;1.90;1.07;;;;;;;;;;5073570;28;20484;-83
2023/11/09 04:31:37;;;;;;;1.35;1.00;;;;;;;;;;5055475;28;20610;-83
2023/11/09 04:34:08;;;;;;;2.30;1.33;;;;;;;;;;5054876;28;20024;-83
2023/11/09 04:36:35;;;;;;;5.10;1.20;;;;;;;;;;5073482;28;20541;-83
2023/11/09 04:39:01;;;;;;;4.25;1.30;;;;;;;;;;5073435;28;20468;-83
2023/11/09 04:41:26;;;;;;;5.55;0.90;;;;;;;;;;5055339;28;20491;-83
2023/11/09 04:43:54;;;;;;;2.97;1.23;;;;;;;;;;5073342;28;20017;-83
2023/11/09 04:46:20;;;;;;;4.32;1.23;;;;;;;;;;5055354;28;20067;-83
2023/11/09 04:48:47;;;;;;;3.95;0.90;;;;;;;;;;5073290;28;20024;-83
2023/11/09 04:51:37;;;;;;;2.47;0.80;;;;;;;;;;5055303;28;20052;-83
2023/11/09 04:54:07;;;;;;;2.45;0.98;;;;;;;;;;5072786;28;20028;-83
2023/11/09 05:06:48;;;;;;;3.35;1.23;;;;;;;;;;5073520;28;20050;-83
2023/11/09 05:07:17;;;;;;;5.50;1.45;;;;;;;;;;5073327;28;20028;-84
2023/11/09 05:09:46;;;;;;;6.57;1.05;;;;;;;;;;5073042;28;20029;-83
2023/11/09 05:12:11;;;;;;;1.65;1.05;;;;;;;;;;5073372;28;20528;-83
2023/11/09 05:14:36;;;;;;;2.30;1.10;;;;;;;;;;5055068;28;20100;-83
2023/11/09 05:17:02;;;;;;;2.80;0.80;;;;;;;;;;5054819;28;20041;-83
2023/11/09 05:19:27;;;;;;;2.47;0.93;;;;;;;;;;5073109;28;20096;-83
2023/11/09 05:21:52;;;;;;;1.77;0.90;;;;;;;;;;5072906;28;20400;-83
2023/11/09 05:24:18;;;;;;;2.40;1.13;;;;;;;;;;5072000;28;20768;-84
2023/11/09 05:26:43;;;;;;;1.98;0.75;;;;;;;;;;5072368;28;20314;-84
2023/11/09 05:29:09;;;;;;;2.25;0.88;;;;;;;;;;5054568;28;20448;-84
2023/11/09 05:31:35;;;;;;;4.28;1.20;;;;;;;;;;5054296;28;20024;-84
2023/11/09 05:34:03;;;;;;;6.22;1.23;;;;;;;;;;5054449;28;20077;-84
2023/11/09 05:36:29;;;;;;;3.00;1.23;;;;;;;;;;5072492;28;20016;-82
2023/11/09 05:38:55;;;;;;;3.70;1.37;;;;;;;;;;5054044;28;20025;-84
2023/11/09 05:41:20;;;;;;;3.08;1.20;;;;;;;;;;5072708;28;20648;-84
2023/11/09 05:43:45;;;;;;;2.27;1.33;;;;;;;;;;5054847;28;20135;-84
2023/11/09 05:46:11;;;;;;;2.75;1.23;;;;;;;;;;5073820;28;20324;-84
2023/11/09 05:48:36;;;;;;;2.42;1.08;;;;;;;;;;5058604;28;20485;-84
2023/11/09 05:51:01;;;;;;;2.35;1.02;;;;;;;;;;5076449;28;20026;-84
2023/11/09 05:53:27;;;;;;;2.97;1.20;;;;;;;;;;5076427;28;20033;-84
2023/11/09 05:55:52;;;;;;;2.57;1.60;;;;;;;;;;5076407;28;20025;-84
2023/11/09 05:58:18;;;;;;;3.28;1.13;;;;;;;;;;5076366;28;20012;-84
2023/11/09 06:00:43;;;;;;;3.63;1.20;;;;;;;;;;5058372;28;20477;-84
2023/11/09 06:03:08;;;;;;;3.33;1.42;;;;;;;;;;5076257;28;20016;-84
2023/11/09 06:05:33;;;;;;;4.50;1.33;;;;;;;;;;5058217;28;20021;-84
2023/11/09 06:07:59;;;;;;;5.70;1.10;;;;;;;;;;5058250;28;20260;-84
2023/11/09 06:10:29;;;;;;;1.45;1.10;;;;;;;;;;5058305;28;20027;-84
2023/11/09 06:12:55;;;;;;;3.30;1.33;;;;;;;;;;5058145;28;20021;-84
2023/11/09 06:15:20;;;;;;;4.47;1.70;;;;;;;;;;5058361;28;20070;-84
2023/11/09 06:17:45;;;;;;;3.17;1.30;;;;;;;;;;5058016;28;20024;-84
2023/11/09 06:20:12;;;;;;;1.80;1.10;;;;;;;;;;5057937;28;20274;-84
2023/11/09 06:22:38;;;;;;;2.15;1.20;;;;;;;;;;5075941;28;20017;-84
2023/11/09 06:25:03;;;;;;;2.95;1.33;;;;;;;;;;5057805;28;20532;-84
2023/11/09 06:27:28;;;;;;;1.92;1.15;;;;;;;;;;5057976;28;20013;-84
2023/11/09 06:29:54;;;;;;;3.13;1.10;;;;;;;;;;5075854;28;20518;-84
2023/11/09 06:32:19;;;;;;;1.20;1.08;;;;;;;;;;5057773;28;20626;-84
2023/11/09 06:34:44;;;;;;;2.38;1.20;;;;;;;;;;5075626;28;20020;-84
2023/11/09 06:37:09;;;;;;;7.27;1.50;;;;;;;;;;5057692;28;20055;-84
2023/11/09 06:39:35;;;;;;;6.07;1.50;;;;;;;;;;5057679;28;20112;-84
2023/11/09 06:42:00;;;;;;;5.43;1.70;;;;;;;;;;5075515;28;20319;-84
2023/11/09 06:44:25;;;;;;;4.07;1.50;;;;;;;;;;5057593;28;20020;-84
2023/11/09 06:46:50;;;;;;;2.93;1.17;;;;;;;;;;5057532;28;20336;-84
2023/11/09 06:49:17;;;;;;;3.30;1.33;;;;;;;;;;5075430;28;20028;-84
2023/11/09 06:51:43;;;;;;;2.38;1.20;;;;;;;;;;5075437;28;20020;-84
2023/11/09 06:54:08;;;;;;;3.30;1.40;;;;;;;;;;5057389;28;20029;-84
2023/11/09 06:56:34;;;;;;;2.20;0.87;;;;;;;;;;5075273;28;20013;-84
2023/11/09 06:58:59;;;;;;;3.80;1.30;;;;;;;;;;5057311;28;20289;-84
2023/11/09 07:01:25;;;;;;;2.35;1.05;;;;;;;;;;5057229;28;20048;-84
2023/11/09 07:03:51;;;;;;;2.50;1.20;;;;;;;;;;5057195;28;20024;-84
2023/11/09 07:06:16;;;;;;;5.07;1.73;;;;;;;;;;5075210;28;20472;-84
2023/11/09 07:08:42;;;;;;;7.47;1.75;;;;;;;;;;5075044;28;20050;-84
2023/11/09 07:11:08;;;;;;;5.55;1.00;;;;;;;;;;5075105;28;20020;-84
2023/11/09 07:13:33;;;;;;;5.40;1.30;;;;;;;;;;5074987;28;20024;-85
2023/11/09 07:15:59;;;;;;;2.65;1.20;;;;;;;;;;5074934;28;20248;-85
2023/11/09 07:18:24;;;;;;;5.65;1.35;;;;;;;;;;5056986;28;20028;-84
2023/11/09 07:20:49;;;;;;;3.22;1.20;;;;;;;;;;5074779;28;20020;-84
2023/11/09 07:23:15;;;;;;;2.87;1.03;;;;;;;;;;5074724;28;20100;-84
2023/11/09 07:25:41;;;;;;;3.97;1.30;;;;;;;;;;5074589;28;20364;-84
2023/11/09 07:28:08;;;;;;;1.83;1.00;;;;;;;;;;5056763;28;20024;-84
2023/11/09 07:30:33;;;;;;;3.70;1.55;;;;;;;;;;5074633;28;20013;-84
2023/11/09 07:33:01;;;;;;;5.43;1.65;;;;;;;;;;5056686;28;20020;-84
2023/11/09 07:35:29;;;;;;;3.35;1.30;;;;;;;;;;5056568;28;20464;-84
2023/11/09 07:37:54;;;;;;;3.58;1.27;;;;;;;;;;5074577;28;20024;-84
2023/11/09 07:40:19;;;;;;;3.38;1.40;;;;;;;;;;5074342;28;20024;-84
2023/11/09 07:42:45;;;;;;;3.03;1.20;;;;;;;;;;5056527;28;20535;-84
2023/11/09 07:45:11;;;;;;;2.80;1.58;;;;;;;;;;5074333;28;20237;-85
2023/11/09 07:47:36;;;;;;;3.05;1.30;;;;;;;;;;5056420;28;20031;-84
2023/11/09 07:50:02;;;;;;;3.33;1.25;;;;;;;;;;5074367;28;20031;-84
2023/11/09 07:52:27;;;;;;;5.78;1.48;;;;;;;;;;5074198;28;20062;-84
2023/11/09 07:54:52;;;;;;;2.22;1.20;;;;;;;;;;5056256;28;20439;-84
2023/11/09 07:57:18;;;;;;;2.20;1.20;;;;;;;;;;5074103;28;20012;-85
2023/11/09 07:59:45;;;;;;;4.33;1.40;;;;;;;;;;5074166;28;20456;-84
2023/11/09 08:02:12;;;;;;;2.65;1.27;;;;;;;;;;5073933;28;20021;-84
2023/11/09 08:04:38;;;;;;;5.07;1.50;;;;;;;;;;5056002;28;20040;-84
2023/11/09 08:07:04;;;;;;;6.30;1.70;;;;;;;;;;5056028;28;20464;-84
2023/11/09 08:09:30;;;;;;;4.10;1.25;;;;;;;;;;5073465;28;20027;-84
2023/11/09 08:11:55;;;;;;;5.40;1.38;;;;;;;;;;5055923;28;20108;-84
2023/11/09 08:14:21;;;;;;;4.22;1.55;;;;;;;;;;5055901;28;20392;-85
2023/11/09 08:16:46;;;;;;;4.05;1.33;;;;;;;;;;5055833;28;20040;-85
2023/11/09 08:19:12;;;;;;;3.67;1.17;;;;;;;;;;5073708;28;20027;-84
2023/11/09 08:21:38;;;;;;;1.77;1.23;;;;;;;;;;5073657;28;20520;-84
2023/11/09 08:24:04;;;;;;;2.88;1.10;;;;;;;;;;5055550;28;20040;-85
2023/11/09 08:26:29;;;;;;;2.38;1.15;;;;;;;;;;5055668;28;20472;-84
2023/11/09 08:28:54;;;;;;;5.20;1.15;;;;;;;;;;5073699;28;20451;-84
2023/11/09 08:31:21;;;;;;;7.22;1.50;;;;;;;;;;5055627;28;20024;-85
2023/11/09 08:33:46;;;;;;;2.70;1.20;;;;;;;;;;5073439;28;20155;-85
2023/11/09 08:36:12;;;;;;;3.73;1.50;;;;;;;;;;5055519;28;20056;-84
2023/11/09 08:38:39;;;;;;;2.77;1.30;;;;;;;;;;5055452;28;20111;-85
2023/11/09 08:41:05;;;;;;;3.05;1.60;;;;;;;;;;5073368;28;20273;-84
2023/11/09 08:43:32;;;;;;;4.10;1.40;;;;;;;;;;5055390;28;20046;-84
2023/11/09 08:45:57;;;;;;;3.78;1.42;;;;;;;;;;5055381;28;20060;-85
2023/11/09 08:48:24;;;;;;;2.60;1.33;;;;;;;;;;5073316;28;20429;-84
2023/11/09 08:50:50;;;;;;;3.38;1.55;;;;;;;;;;5055296;28;20254;-84
2023/11/09 08:53:17;;;;;;;2.92;1.27;;;;;;;;;;5073288;28;20020;-84
2023/11/09 08:55:42;;;;;;;1.67;1.15;;;;;;;;;;5073282;28;20027;-84
2023/11/09 08:58:07;;;;;;;4.40;1.30;;;;;;;;;;5073255;28;20050;-85
2023/11/09 09:00:34;;;;;;;2.23;1.50;;;;;;;;;;5055219;28;20017;-85
2023/11/09 09:03:01;;;;;;;4.55;1.60;;;;;;;;;;5055172;28;20253;-84
2023/11/09 09:05:26;;;;;;;4.25;1.80;;;;;;;;;;5055181;28;20027;-85
2023/11/09 09:07:53;;;;;;;2.92;1.42;;;;;;;;;;5073218;28;20024;-85
2023/11/09 09:10:20;;;;;;;2.30;1.30;;;;;;;;;;5073145;28;20013;-84
2023/11/09 09:12:46;;;;;;;2.63;1.45;;;;;;;;;;5073173;28;20357;-85
2023/11/09 09:15:18;;;;;;;4.05;1.35;;;;;;;;;;5073102;28;20104;-85
2023/11/09 09:17:45;;;;;;;2.30;1.10;;;;;;;;;;5073034;28;20392;-84
2023/11/09 09:20:11;;;;;;;2.30;1.13;;;;;;;;;;5055044;28;20369;-85
2023/11/09 09:22:38;;;;;;;5.13;1.30;;;;;;;;;;5076497;28;20070;-84
2023/11/09 09:25:04;;;;;;;1.85;1.10;;;;;;;;;;5076946;28;20041;-85
2023/11/09 09:27:29;;;;;;;4.20;1.30;;;;;;;;;;5077056;28;20100;-85
2023/11/09 09:29:54;;;;;;;2.20;1.30;;;;;;;;;;5077027;28;20016;-84
2023/11/09 09:32:20;;;;;;;4.33;1.33;;;;;;;;;;5076851;28;20027;-84
2023/11/09 09:34:46;;;;;;;2.10;1.20;;;;;;;;;;5058835;28;20245;-84
2023/11/09 09:37:14;;;;;;;1.63;1.15;;;;;;;;;;5058838;28;20070;-84
2023/11/09 09:39:39;;;;;;;2.97;1.10;;;;;;;;;;5058809;28;20020;-84
2023/11/09 09:42:05;;;;;;;4.93;1.48;;;;;;;;;;5058699;28;20024;-84
2023/11/09 09:44:31;;;;;;;2.50;1.10;;;;;;;;;;5076662;28;20016;-84
2023/11/09 09:46:58;;;;;;;2.13;0.90;;;;;;;;;;5058728;28;20078;-84
2023/11/09 09:49:25;;;;;;;1.23;1.02;;;;;;;;;;5076564;28;20016;-84
2023/11/09 09:51:51;;;;;;;3.17;1.13;;;;;;;;;;5058592;28;20491;-85
2023/11/09 09:54:18;;;;;;;2.65;1.08;;;;;;;;;;5058565;28;20020;-84
2023/11/09 09:56:47;;;;;;;1.80;0.80;;;;;;;;;;5058414;28;20052;-84
2023/11/09 09:59:13;;;;;;;3.20;1.05;;;;;;;;;;5076439;28;20361;-84
2023/11/09 10:01:47;;;;;;;4.13;0.82;;;;;;;;;;5076271;28;20020;-84
2023/11/09 10:04:14;;;;;;;1.67;0.90;;;;;;;;;;5058451;28;20476;-85
2023/11/09 10:06:40;;;;;;;1.85;0.88;;;;;;;;;;5058315;28;20045;-84
2023/11/09 10:09:07;;;;;;;1.42;0.88;;;;;;;;;;5076211;28;20020;-84
2023/11/09 10:11:32;;;;;;;1.33;0.70;;;;;;;;;;5076181;28;20073;-84
2023/11/09 10:13:58;;;;;;;2.00;0.80;;;;;;;;;;5058243;28;20028;-84
2023/11/09 10:16:33;;;;;;;3.67;0.80;;;;;;;;;;5076064;28;20352;-84
2023/11/09 10:18:59;;;;;;;1.33;0.70;;;;;;;;;;5058104;28;20357;-85
2023/11/09 10:21:27;;;;;;;1.10;0.80;;;;;;;;;;5058222;28;20027;-84
2023/11/09 10:23:55;;;;;;;0.70;0.55;;;;;;;;;;5057874;28;20512;-84
2023/11/09 10:26:21;;;;;;;1.48;0.88;;;;;;;;;;5057932;28;20017;-84
2023/11/09 10:28:50;;;;;;;1.60;0.80;;;;;;;;;;5057888;28;20027;-84
2023/11/09 10:31:30;;;;;;;5.85;0.60;;;;;;;;;;5057872;28;20021;-84
2023/11/09 10:33:55;;;;;;;3.05;0.60;;;;;;;;;;5057733;28;20077;-84
2023/11/09 10:36:24;;;;;;;2.93;0.60;;;;;;;;;;5057714;28;20028;-85
2023/11/09 10:38:49;;;;;;;1.13;0.68;;;;;;;;;;5057697;28;20396;-84
2023/11/09 10:41:17;;;;;;;1.70;0.67;;;;;;;;;;5057657;28;20020;-84
2023/11/09 10:43:43;;;;;;;0.95;0.60;;;;;;;;;;5075553;28;20234;-85
2023/11/09 10:46:08;;;;;;;2.00;0.68;;;;;;;;;;5075581;28;20012;-85
2023/11/09 10:48:40;;;;;;;2.63;0.80;;;;;;;;;;5057472;28;20021;-84
2023/11/09 10:51:08;;;;;;;1.50;0.80;;;;;;;;;;5075460;28;20060;-85
2023/11/09 10:53:37;;;;;;;4.38;0.60;;;;;;;;;;5075514;28;20613;-84
2023/11/09 10:56:09;;;;;;;0.90;0.50;;;;;;;;;;5075524;28;20123;-85
2023/11/09 10:58:36;;;;;;;1.30;0.63;;;;;;;;;;5075353;28;20517;-85
2023/11/09 11:01:06;;;;;;;2.35;0.40;;;;;;;;;;5075186;28;20024;-84
2023/11/09 11:03:55;;;;;;;1.90;0.52;;;;;;;;;;5075283;28;20024;-84
2023/11/09 11:06:23;;;;;;;5.28;0.65;;;;;;;;;;5074940;28;20016;-84
2023/11/09 11:08:50;;;;;;;0.52;0.35;;;;;;;;;;5075152;28;20465;-85
2023/11/09 11:11:16;;;;;;;0.40;0.40;;;;;;;;;;5075110;28;20044;-84
2023/11/09 11:13:43;;;;;;;0.80;0.55;;;;;;;;;;5074976;28;20030;-84
2023/11/09 11:16:18;;;;;;;0.85;0.55;;;;;;;;;;5057042;28;20369;-85
2023/11/09 11:18:51;;;;;;;0.50;0.50;;;;;;;;;;5056999;28;20110;-85
2023/11/09 11:21:31;;;;;;;2.88;0.50;;;;;;;;;;5056862;28;20480;-85
2023/11/09 11:24:23;;;;;;;2.03;0.50;;;;;;;;;;5074691;28;20073;-84
2023/11/09 11:26:57;;;;;;;0.65;0.52;;;;;;;;;;5054973;28;20056;-84
2023/11/09 11:29:23;;;;;;;0.40;0.40;;;;;;;;;;5056799;28;20044;-84
2023/11/09 11:31:49;;;;;;;1.27;0.68;;;;;;;;;;5074679;28;20469;-84
2023/11/09 11:34:17;;;;;;;0.65;0.52;;;;;;;;;;5056655;28;20507;-84
2023/11/09 11:36:46;;;;;;;0.80;0.40;;;;;;;;;;5074565;28;20100;-84
2023/11/09 11:39:20;;;;;;;1.05;0.50;;;;;;;;;;5056616;28;20020;-84
2023/11/09 11:41:46;;;;;;;2.05;0.68;;;;;;;;;;5056480;28;20052;-84
2023/11/09 11:44:11;;;;;;;1.85;0.60;;;;;;;;;;5055571;28;20027;-84
2023/11/09 11:46:37;;;;;;;1.00;0.45;;;;;;;;;;5074366;28;20021;-84
2023/11/09 11:49:03;;;;;;;0.45;0.45;;;;;;;;;;5074302;28;20065;-85
2023/11/09 11:51:30;;;;;;;0.90;0.77;;;;;;;;;;5056401;28;20024;-84
2023/11/09 11:54:08;;;;;;;1.30;0.40;;;;;;;;;;5074295;28;20013;-85
2023/11/09 11:56:33;;;;;;;1.00;0.50;;;;;;;;;;5074165;28;20017;-85
2023/11/09 11:59:04;;;;;;;1.70;0.60;;;;;;;;;;5074104;28;20031;-85
2023/11/09 12:01:29;;;;;;;0.40;0.40;;;;;;;;;;5056077;28;20273;-85
2023/11/09 12:03:57;;;;;;;2.43;0.60;;;;;;;;;;5074082;28;20043;-85
2023/11/09 12:06:27;;;;;;;1.42;0.60;;;;;;;;;;5056069;28;20336;-85
2023/11/09 12:08:55;;;;;;;1.80;1.10;;;;;;;;;;5055956;28;20496;-84
2023/11/09 12:11:26;;;;;;;4.78;0.93;;;;;;;;;;5055963;28;20027;-84
2023/11/09 12:13:52;;;;;;;3.28;1.10;;;;;;;;;;5055871;28;20039;-85
2023/11/09 12:16:17;;;;;;;4.03;0.85;;;;;;;;;;5055896;28;20028;-85
2023/11/09 12:18:47;;;;;;;2.95;1.02;;;;;;;;;;5055842;28;20070;-85
2023/11/09 12:21:13;;;;;;;2.88;1.00;;;;;;;;;;5055751;28;20020;-85
2023/11/09 12:23:38;;;;;;;1.85;0.80;;;;;;;;;;5055637;28;20017;-84
2023/11/09 12:26:07;;;;;;;5.95;1.17;;;;;;;;;;5055729;28;20115;-84
2023/11/09 12:28:33;;;;;;;3.50;1.10;;;;;;;;;;5073618;28;20488;-84
2023/11/09 12:30:59;;;;;;;3.13;0.50;;;;;;;;;;5055590;28;20021;-85
2023/11/09 12:33:24;;;;;;;1.23;0.60;;;;;;;;;;5073563;28;20024;-84
2023/11/09 12:36:03;;;;;;;6.85;0.90;;;;;;;;;;5073411;28;20074;-84
2023/11/09 12:38:28;;;;;;;4.47;1.00;;;;;;;;;;5055478;28;20488;-84
2023/11/09 12:40:54;;;;;;;3.53;0.80;;;;;;;;;;5055600;28;20059;-85
2023/11/09 12:43:20;;;;;;;2.38;0.60;;;;;;;;;;5073360;28;20036;-84
2023/11/09 12:46:08;;;;;;;2.83;0.90;;;;;;;;;;5055426;28;20044;-84
2023/11/09 12:48:43;;;;;;;2.55;0.60;;;;;;;;;;5073402;28;20357;-84
2023/11/09 12:51:13;;;;;;;4.78;1.00;;;;;;;;;;5073347;28;20012;-84
2023/11/09 12:53:40;;;;;;;1.83;0.52;;;;;;;;;;5055386;28;20025;-85
2023/11/09 12:56:06;;;;;;;0.57;0.57;;;;;;;;;;5073152;28;20473;-84
2023/11/09 12:58:34;;;;;;;1.95;0.85;;;;;;;;;;5073208;28;20051;-84
2023/11/09 13:01:03;;;;;;;1.45;0.80;;;;;;;;;;5073174;28;20464;-84
2023/11/09 13:03:29;;;;;;;2.42;0.80;;;;;;;;;;5073294;28;20035;-85
2023/11/09 13:05:54;;;;;;;4.63;0.88;;;;;;;;;;5073177;28;20465;-84
2023/11/09 13:08:20;;;;;;;2.55;1.08;;;;;;;;;;5073196;28;20020;-85
2023/11/09 13:10:54;;;;;;;3.60;0.67;;;;;;;;;;5073148;28;20021;-85
2023/11/09 13:13:22;;;;;;;1.58;0.60;;;;;;;;;;5073118;28;20025;-84
2023/11/09 13:15:50;;;;;;;1.63;0.65;;;;;;;;;;5073119;28;20108;-84
2023/11/09 13:18:23;;;;;;;2.28;0.80;;;;;;;;;;5055125;28;20021;-84
2023/11/09 13:20:53;;;;;;;7.13;1.02;;;;;;;;;;5054977;28;20024;-85
2023/11/09 13:23:26;;;;;;;6.10;1.13;;;;;;;;;;5072985;28;20051;-84
2023/11/09 13:25:53;;;;;;;2.15;0.77;;;;;;;;;;5072841;28;20408;-84
2023/11/09 13:28:20;;;;;;;1.08;0.40;;;;;;;;;;5072997;28;20024;-84
2023/11/09 13:30:51;;;;;;;1.75;0.60;;;;;;;;;;5054961;28;20020;-84
2023/11/09 13:33:45;;;;;;;2.73;0.73;;;;;;;;;;5054998;28;20541;-85
2023/11/09 13:36:11;;;;;;;3.40;0.70;;;;;;;;;;5072397;28;20028;-85
2023/11/09 13:41:17;;;;;;;2.38;1.00;;;;;;;;;;5072790;28;20540;-84
2023/11/09 13:46:22;;;;;;;4.32;0.70;;;;;;;;;;5073076;28;20020;-84
2023/11/09 13:48:50;;;;;;;2.63;0.93;;;;;;;;;;5054800;28;20024;-85
2023/11/09 13:51:20;;;;;;;4.13;1.00;;;;;;;;;;5072791;28;20499;-85
2023/11/09 13:53:55;;;;;;;1.90;0.82;;;;;;;;;;5054719;28;20073;-84
2023/11/09 13:58:48;;;;;;;3.70;0.90;;;;;;;;;;5072725;28;20017;-85
2023/11/09 14:01:28;;;;;;;2.88;1.30;;;;;;;;;;5072584;28;20272;-85
2023/11/09 14:03:54;;;;;;;3.55;0.98;;;;;;;;;;5054656;28;20032;-84
2023/11/09 14:06:21;;;;;;;5.82;1.30;;;;;;;;;;5054634;28;20393;-84
2023/11/09 14:08:46;;;;;;;4.07;1.00;;;;;;;;;;5076036;28;20013;-85
2023/11/09 14:11:11;;;;;;;6.47;1.10;;;;;;;;;;5058262;28;20116;-84
2023/11/09 14:13:46;;;;;;;3.27;0.90;;;;;;;;;;5076138;28;20058;-85
2023/11/09 14:16:23;;;;;;;7.30;1.00;;;;;;;;;;5058185;28;20344;-84
2023/11/09 14:18:59;;;;;;;10.05;1.10;;;;;;;;;;5058142;28;20388;-85
2023/11/09 14:21:24;;;;;;;3.45;1.08;;;;;;;;;;5076029;28;20048;-84
2023/11/09 14:23:50;;;;;;;3.30;1.02;;;;;;;;;;5057906;28;20578;-85
2023/11/09 14:26:15;;;;;;;1.92;1.00;;;;;;;;;;5057997;28;20070;-85
2023/11/09 14:28:42;;;;;;;5.53;1.33;;;;;;;;;;5058047;28;20031;-84
2023/11/09 14:31:10;;;;;;;2.08;0.90;;;;;;;;;;5057881;28;20025;-85
2023/11/09 14:33:36;;;;;;;11.30;1.42;;;;;;;;;;5075825;28;20103;-85
2023/11/09 14:36:02;;;;;;;2.22;1.00;;;;;;;;;;5057773;28;20459;-85
2023/11/09 14:38:27;;;;;;;2.58;1.05;;;;;;;;;;5057884;28;20107;-84
2023/11/09 14:40:54;;;;;;;9.45;1.27;;;;;;;;;;5057667;28;20035;-84
2023/11/09 14:43:19;;;;;;;6.30;1.10;;;;;;;;;;5057631;28;20371;-85
2023/11/09 14:45:45;;;;;;;3.55;1.33;;;;;;;;;;5075587;28;20095;-85
2023/11/09 14:48:15;;;;;;;2.60;0.85;;;;;;;;;;5075541;28;20101;-85
2023/11/09 14:50:41;;;;;;;4.65;1.38;;;;;;;;;;5075521;28;20022;-84
2023/11/09 14:55:35;;;;;;;5.28;1.48;;;;;;;;;;5075710;28;20025;-84
2023/11/09 14:58:07;;;;;;;7.75;2.13;;;;;;;;;;5075357;28;20487;-84
2023/11/09 15:00:33;;;;;;;;;;;;;;;;;;5057750;28;20439;-84